Time;durP1;ratioP1;P1;durP2;ratioP2;P2;SDS_P1;SDS_P2;PMS_P1;PMS_P2;Temp;Humidity;BMP_temperature;BMP_pressure;BME280_temperature;BME280_humidity;BME280_pressure;Samples;Min_cycle;Max_cycle;Signal;HPM_P1;HPM_P2
2022/11/27 00:01:44;;;;;;;7.88;4.60;;;17.70;99.90;;;;;;4223455;28;20210;-73
2022/11/27 00:03:49;;;;;;;8.30;4.68;;;17.70;99.90;;;;;;4229552;28;20214;-73
2022/11/27 00:05:53;;;;;;;9.10;5.20;;;17.70;99.90;;;;;;4231692;27;20221;-73
2022/11/27 00:07:56;;;;;;;8.95;5.28;;;17.70;99.90;;;;;;4239442;27;20235;-73
2022/11/27 00:09:58;;;;;;;9.50;4.88;;;17.70;99.90;;;;;;4242217;27;20217;-73
2022/11/27 00:12:00;;;;;;;6.68;4.22;;;17.70;99.90;;;;;;4254295;27;20217;-73
2022/11/27 00:14:03;;;;;;;7.05;4.90;;;17.70;99.90;;;;;;4246251;27;20216;-73
2022/11/27 00:16:06;;;;;;;8.90;5.35;;;17.70;99.90;;;;;;4246097;27;20216;-73
2022/11/27 00:18:08;;;;;;;9.07;4.78;;;17.70;99.90;;;;;;4244728;27;20217;-73
2022/11/27 00:20:13;;;;;;;10.05;5.00;;;17.70;99.90;;;;;;4241001;27;20666;-73
2022/11/27 00:22:16;;;;;;;7.55;5.00;;;17.70;99.90;;;;;;4231017;27;20734;-73
2022/11/27 00:24:18;;;;;;;6.03;4.30;;;17.70;99.90;;;;;;4233457;27;20210;-73
2022/11/27 00:26:21;;;;;;;6.72;4.55;;;17.70;99.90;;;;;;4229414;28;20735;-73
2022/11/27 00:28:24;;;;;;;7.40;4.68;;;17.70;99.90;;;;;;4229076;28;20267;-73
2022/11/27 00:30:26;;;;;;;10.57;5.30;;;17.70;99.90;;;;;;4228927;28;20214;-72
2022/11/27 00:32:28;;;;;;;7.43;5.38;;;17.70;99.90;;;;;;4225258;28;20285;-73
2022/11/27 00:34:31;;;;;;;7.93;4.95;;;17.70;99.90;;;;;;4222521;28;20218;-73
2022/11/27 00:36:35;;;;;;;8.25;4.70;;;17.70;99.90;;;;;;4229073;28;21015;-73
2022/11/27 00:38:38;;;;;;;7.55;4.50;;;17.70;99.90;;;;;;4228855;28;20221;-73
2022/11/27 00:40:40;;;;;;;7.32;4.55;;;17.70;99.90;;;;;;4228904;28;20213;-73
2022/11/27 00:42:42;;;;;;;6.40;4.22;;;17.70;99.90;;;;;;4229013;28;20661;-74
2022/11/27 00:44:45;;;;;;;8.07;4.97;;;17.70;99.90;;;;;;4229182;28;20282;-73
2022/11/27 00:46:47;;;;;;;7.97;4.50;;;17.70;99.90;;;;;;4228970;28;20214;-73
2022/11/27 00:48:49;;;;;;;7.70;4.85;;;17.70;99.90;;;;;;4229078;28;20600;-73
2022/11/27 00:50:52;;;;;;;8.65;5.07;;;17.70;99.90;;;;;;4226859;28;20218;-73
2022/11/27 00:52:55;;;;;;;9.45;4.82;;;17.60;99.90;;;;;;4228970;28;20218;-73
2022/11/27 00:54:58;;;;;;;8.13;4.65;;;17.70;99.90;;;;;;4227900;28;20271;-73
2022/11/27 00:57:00;;;;;;;8.07;3.97;;;17.60;99.90;;;;;;4228665;28;20259;-73
2022/11/27 00:59:04;;;;;;;6.47;3.90;;;17.70;99.90;;;;;;4223295;28;20218;-73
2022/11/27 01:01:07;;;;;;;7.68;4.40;;;17.60;99.90;;;;;;4226520;28;20218;-73
2022/11/27 01:03:09;;;;;;;7.53;4.57;;;17.70;99.90;;;;;;4229003;28;20972;-73
2022/11/27 01:05:12;;;;;;;7.32;4.50;;;17.60;99.90;;;;;;4228960;28;20217;-73
2022/11/27 01:07:14;;;;;;;6.95;4.15;;;17.60;99.90;;;;;;4221382;28;20269;-73
2022/11/27 01:09:23;;;;;;;7.70;4.95;;;17.60;99.90;;;;;;4216670;28;20206;-73
2022/11/27 01:11:27;;;;;;;6.75;4.35;;;17.60;99.90;;;;;;4224147;28;20225;-73
2022/11/27 01:13:32;;;;;;;6.13;4.07;;;17.70;99.90;;;;;;4229047;28;20658;-73
2022/11/27 01:15:34;;;;;;;8.38;4.80;;;17.70;99.90;;;;;;4228449;28;20328;-73
2022/11/27 01:17:37;;;;;;;8.57;4.47;;;17.70;99.90;;;;;;4226952;28;20210;-73
2022/11/27 01:19:39;;;;;;;7.43;4.30;;;17.60;99.90;;;;;;4228833;28;20658;-73
2022/11/27 01:21:41;;;;;;;8.05;4.50;;;17.60;99.90;;;;;;4242945;27;20305;-73
2022/11/27 01:23:44;;;;;;;9.05;4.68;;;17.70;99.90;;;;;;4235387;28;20217;-73
2022/11/27 01:25:48;;;;;;;8.25;4.50;;;17.60;99.90;;;;;;4228859;28;20255;-73
2022/11/27 01:27:50;;;;;;;6.18;4.05;;;17.60;99.90;;;;;;4228679;28;20214;-73
2022/11/27 01:29:52;;;;;;;7.13;4.35;;;17.60;99.90;;;;;;4228784;28;20267;-73
2022/11/27 01:31:55;;;;;;;7.50;4.53;;;17.60;99.90;;;;;;4230279;28;20249;-73
2022/11/27 01:33:59;;;;;;;7.38;4.20;;;17.60;99.90;;;;;;4231852;28;20213;-73
2022/11/27 01:36:03;;;;;;;7.18;4.25;;;17.60;99.90;;;;;;4242357;27;20258;-73
2022/11/27 01:38:06;;;;;;;7.90;4.22;;;17.60;99.90;;;;;;4248953;27;20213;-73
2022/11/27 01:40:09;;;;;;;7.63;3.80;;;17.60;99.90;;;;;;4248869;27;20616;-73
2022/11/27 01:42:13;;;;;;;6.63;4.22;;;17.60;99.90;;;;;;4248000;27;20209;-73
2022/11/27 01:44:53;;;;;;;7.22;4.53;;;17.60;99.90;;;;;;4233031;27;20217;-73
2022/11/27 01:46:58;;;;;;;8.73;4.53;;;17.60;99.90;;;;;;4231519;28;20214;-73
2022/11/27 01:49:21;;;;;;;6.90;4.45;;;17.60;99.90;;;;;;4231829;28;20217;-74
2022/11/27 01:51:24;;;;;;;8.02;4.60;;;17.60;99.90;;;;;;4231686;28;20218;-73
2022/11/27 01:53:26;;;;;;;5.47;3.63;;;17.60;99.90;;;;;;4231396;28;20214;-74
2022/11/27 01:55:34;;;;;;;5.95;3.78;;;17.60;99.90;;;;;;4245198;27;20216;-73
2022/11/27 01:57:42;;;;;;;7.20;4.18;;;17.60;99.90;;;;;;4231785;27;20217;-73
2022/11/27 01:59:46;;;;;;;8.13;4.30;;;17.60;99.90;;;;;;4242091;27;20209;-73
2022/11/27 02:01:48;;;;;;;8.48;4.43;;;17.60;99.90;;;;;;4231329;28;20214;-73
2022/11/27 02:03:51;;;;;;;7.43;4.78;;;17.60;99.90;;;;;;4231271;28;20243;-73
2022/11/27 02:05:53;;;;;;;5.30;3.63;;;17.60;99.90;;;;;;4231232;28;20213;-73
2022/11/27 02:07:58;;;;;;;7.28;3.97;;;17.60;99.90;;;;;;4231730;27;20263;-73
2022/11/27 02:10:01;;;;;;;7.43;4.25;;;17.60;99.90;;;;;;4248305;27;21037;-74
2022/11/27 02:12:15;;;;;;;6.05;4.03;;;17.60;99.90;;;;;;4248179;27;20233;-74
2022/11/27 02:14:29;;;;;;;7.65;4.30;;;17.60;99.90;;;;;;4248448;27;20672;-73
2022/11/27 02:16:42;;;;;;;7.22;4.00;;;17.60;99.90;;;;;;4247412;27;20266;-73
2022/11/27 02:18:54;;;;;;;5.80;3.55;;;17.60;99.90;;;;;;4231104;28;20244;-73
2022/11/27 02:21:04;;;;;;;6.30;4.20;;;17.60;99.90;;;;;;4223157;28;20238;-73
2022/11/27 02:23:36;;;;;;;6.93;4.00;;;17.50;99.90;;;;;;4223206;28;20309;-73
2022/11/27 02:25:49;;;;;;;4.88;3.47;;;17.50;99.90;;;;;;4231040;28;20562;-73
2022/11/27 02:28:10;;;;;;;6.03;3.85;;;17.50;99.90;;;;;;4231433;28;20217;-74
2022/11/27 02:30:14;;;;;;;6.80;3.97;;;17.50;99.90;;;;;;4230631;28;20280;-73
2022/11/27 02:32:23;;;;;;;5.47;3.67;;;17.60;99.90;;;;;;4226190;27;20237;-73
2022/11/27 02:34:31;;;;;;;5.60;3.55;;;17.50;99.90;;;;;;4229451;28;20258;-73
2022/11/27 02:36:35;;;;;;;6.60;4.00;;;17.50;99.90;;;;;;4230261;28;20225;-73
2022/11/27 02:38:41;;;;;;;5.97;3.63;;;17.50;99.90;;;;;;4229809;28;20298;-73
2022/11/27 02:40:51;;;;;;;7.07;3.67;;;17.50;99.90;;;;;;4224607;28;20319;-73
2022/11/27 02:42:57;;;;;;;7.10;3.85;;;17.50;99.90;;;;;;4228053;28;20217;-73
2022/11/27 02:45:03;;;;;;;5.40;3.55;;;17.50;99.90;;;;;;4230351;28;20271;-73
2022/11/27 02:47:08;;;;;;;6.50;3.75;;;17.50;99.90;;;;;;4230520;28;20221;-73
2022/11/27 02:49:14;;;;;;;5.80;4.00;;;17.50;99.90;;;;;;4227775;28;20218;-73
2022/11/27 02:51:20;;;;;;;5.65;3.35;;;17.50;99.90;;;;;;4230679;27;20327;-73
2022/11/27 02:53:29;;;;;;;5.35;3.50;;;17.50;99.90;;;;;;4229956;28;20238;-73
2022/11/27 02:55:34;;;;;;;6.68;3.42;;;17.50;99.90;;;;;;4229805;28;20266;-73
2022/11/27 02:57:38;;;;;;;6.78;3.38;;;17.50;99.90;;;;;;4229493;28;20225;-73
2022/11/27 02:59:43;;;;;;;6.13;3.80;;;17.50;99.90;;;;;;4228746;28;20262;-73
2022/11/27 03:01:52;;;;;;;6.32;3.80;;;17.50;99.90;;;;;;4227353;28;20619;-73
2022/11/27 03:03:58;;;;;;;6.03;3.53;;;17.50;99.90;;;;;;4228645;28;20225;-73
2022/11/27 03:06:09;;;;;;;5.93;3.60;;;17.50;99.90;;;;;;4229036;28;20299;-73
2022/11/27 03:08:18;;;;;;;5.45;3.08;;;17.50;99.90;;;;;;4229044;27;20221;-73
2022/11/27 03:10:28;;;;;;;6.90;3.63;;;17.50;99.90;;;;;;4227413;28;20209;-73
2022/11/27 03:12:31;;;;;;;5.30;3.70;;;17.50;99.90;;;;;;4228855;28;20260;-73
2022/11/27 03:14:34;;;;;;;6.63;3.78;;;17.50;99.90;;;;;;4229174;28;20282;-73
2022/11/27 03:16:40;;;;;;;6.47;3.40;;;17.50;99.90;;;;;;4229224;28;20547;-73
2022/11/27 03:18:55;;;;;;;6.30;3.75;;;17.50;99.90;;;;;;4228747;28;20217;-73
2022/11/27 03:21:05;;;;;;;6.43;3.30;;;17.50;99.90;;;;;;4233261;27;20571;-73
2022/11/27 03:23:07;;;;;;;5.93;3.65;;;17.50;99.90;;;;;;4250026;27;20272;-72
2022/11/27 03:25:10;;;;;;;5.05;3.33;;;17.50;99.90;;;;;;4235532;27;20217;-73
2022/11/27 03:27:15;;;;;;;6.93;3.40;;;17.50;99.90;;;;;;4240063;27;20214;-73
2022/11/27 03:29:21;;;;;;;5.88;3.38;;;17.40;99.90;;;;;;4240213;27;20221;-73
2022/11/27 03:31:24;;;;;;;5.03;3.17;;;17.40;99.90;;;;;;4234969;27;20599;-73
2022/11/27 03:33:27;;;;;;;6.30;3.28;;;17.40;99.90;;;;;;4234719;27;20253;-73
2022/11/27 03:35:30;;;;;;;5.43;3.13;;;17.50;99.90;;;;;;4236450;27;20213;-73
2022/11/27 03:37:34;;;;;;;4.88;2.95;;;17.40;99.90;;;;;;4240212;27;20221;-73
2022/11/27 03:39:36;;;;;;;5.50;3.15;;;17.50;99.90;;;;;;4236743;27;20213;-74
2022/11/27 03:41:46;;;;;;;5.43;3.30;;;17.40;99.90;;;;;;4237611;27;20218;-73
2022/11/27 03:43:57;;;;;;;5.90;3.35;;;17.40;99.90;;;;;;4240482;27;20213;-73
2022/11/27 03:46:04;;;;;;;4.20;2.45;;;17.50;99.90;;;;;;4234316;27;20214;-73
2022/11/27 03:48:17;;;;;;;4.82;3.17;;;17.50;99.90;;;;;;4234230;27;20217;-74
2022/11/27 03:50:31;;;;;;;5.00;3.10;;;17.40;99.90;;;;;;4240092;27;20242;-73
2022/11/27 03:52:44;;;;;;;5.80;2.88;;;17.40;99.90;;;;;;4234508;27;20240;-73
2022/11/27 03:54:59;;;;;;;5.32;3.13;;;17.40;99.90;;;;;;4238377;27;20213;-73
2022/11/27 03:57:10;;;;;;;5.55;3.35;;;17.40;99.90;;;;;;4236865;27;20257;-73
2022/11/27 03:59:19;;;;;;;5.15;3.22;;;17.40;99.90;;;;;;4238723;27;20209;-73
2022/11/27 04:01:25;;;;;;;4.05;2.92;;;17.50;99.90;;;;;;4239851;27;20360;-73
2022/11/27 04:03:29;;;;;;;6.28;3.20;;;17.40;99.90;;;;;;4237459;27;20266;-74
2022/11/27 04:05:31;;;;;;;4.15;3.03;;;17.40;99.90;;;;;;4240083;27;20221;-73
2022/11/27 04:07:35;;;;;;;4.60;3.22;;;17.40;99.90;;;;;;4240092;27;20213;-73
2022/11/27 04:09:37;;;;;;;5.03;3.30;;;17.40;99.90;;;;;;4240678;27;20221;-73
2022/11/27 04:11:39;;;;;;;4.72;3.03;;;17.40;99.90;;;;;;4238227;27;20205;-73
2022/11/27 04:13:42;;;;;;;5.40;3.05;;;17.40;99.90;;;;;;4239962;27;20570;-73
2022/11/27 04:15:44;;;;;;;4.65;2.72;;;17.40;99.90;;;;;;4238169;27;20214;-72
2022/11/27 04:17:47;;;;;;;5.25;2.78;;;17.40;99.90;;;;;;4239898;27;20222;-73
2022/11/27 04:19:49;;;;;;;4.30;2.60;;;17.40;99.90;;;;;;4234350;27;20265;-73
2022/11/27 04:21:51;;;;;;;4.53;3.13;;;17.40;99.90;;;;;;4239552;27;20240;-73
2022/11/27 04:23:55;;;;;;;4.40;3.10;;;17.40;99.90;;;;;;4232899;27;20251;-74
2022/11/27 04:25:59;;;;;;;4.90;2.88;;;17.30;99.90;;;;;;4234931;27;20213;-74
2022/11/27 04:28:02;;;;;;;4.07;2.97;;;17.40;99.90;;;;;;4245126;27;20246;-74
2022/11/27 04:30:05;;;;;;;4.35;3.03;;;17.40;99.90;;;;;;4239079;27;20216;-74
2022/11/27 04:32:07;;;;;;;4.60;2.72;;;17.40;99.90;;;;;;4240199;27;20220;-74
2022/11/27 04:34:10;;;;;;;4.63;3.00;;;17.40;99.90;;;;;;4239801;27;20267;-74
2022/11/27 04:36:12;;;;;;;4.88;3.10;;;17.40;99.90;;;;;;4239757;27;20289;-74
2022/11/27 04:38:14;;;;;;;4.72;3.17;;;17.40;99.90;;;;;;4239535;28;20279;-74
2022/11/27 04:40:19;;;;;;;4.40;2.95;;;17.40;99.90;;;;;;4239494;28;20644;-74
2022/11/27 04:42:21;;;;;;;4.68;2.70;;;17.40;99.90;;;;;;4239322;28;20309;-74
2022/11/27 04:44:24;;;;;;;4.15;2.40;;;17.40;99.90;;;;;;4239159;28;20216;-74
2022/11/27 04:46:26;;;;;;;3.97;2.80;;;17.40;99.90;;;;;;4239120;28;20217;-74
2022/11/27 04:48:28;;;;;;;4.82;2.92;;;17.40;99.90;;;;;;4239940;28;20668;-74
2022/11/27 04:50:31;;;;;;;4.97;3.10;;;17.40;99.90;;;;;;4239396;28;20298;-74
2022/11/27 04:52:33;;;;;;;4.28;2.85;;;17.40;99.90;;;;;;4234066;28;20210;-74
2022/11/27 04:54:35;;;;;;;3.72;2.45;;;17.40;99.90;;;;;;4238683;28;20241;-73
2022/11/27 04:56:39;;;;;;;4.15;3.00;;;17.40;99.90;;;;;;4237072;28;20213;-73
2022/11/27 04:58:41;;;;;;;4.15;2.90;;;17.40;99.90;;;;;;4235430;28;20608;-73
2022/11/27 05:00:43;;;;;;;4.18;2.42;;;17.40;99.90;;;;;;4239177;28;20222;-73
2022/11/27 05:02:46;;;;;;;5.65;2.60;;;17.40;99.90;;;;;;4238799;28;20214;-74
2022/11/27 05:04:48;;;;;;;3.72;2.58;;;17.40;99.90;;;;;;4239609;28;20267;-74
2022/11/27 05:06:51;;;;;;;4.55;2.53;;;17.40;99.90;;;;;;4235305;27;20217;-74
2022/11/27 05:08:58;;;;;;;4.63;3.00;;;17.30;99.90;;;;;;4245480;27;20266;-74
2022/11/27 05:11:02;;;;;;;4.20;2.60;;;17.30;99.90;;;;;;4238930;27;20246;-73
2022/11/27 05:13:05;;;;;;;4.35;2.70;;;17.40;99.90;;;;;;4236915;27;20217;-74
2022/11/27 05:15:09;;;;;;;5.03;2.72;;;17.40;99.90;;;;;;4237001;27;20217;-74
2022/11/27 05:17:11;;;;;;;4.95;2.95;;;17.30;99.90;;;;;;4237455;27;20275;-74
2022/11/27 05:19:16;;;;;;;5.10;2.58;;;17.40;99.90;;;;;;4236701;27;20213;-74
2022/11/27 05:21:18;;;;;;;3.72;2.80;;;17.40;99.90;;;;;;4236791;27;20233;-73
2022/11/27 05:23:20;;;;;;;4.90;2.83;;;17.40;99.90;;;;;;4242275;27;20210;-73
2022/11/27 05:25:23;;;;;;;5.10;2.80;;;17.40;99.90;;;;;;4237093;27;20628;-74
2022/11/27 05:27:25;;;;;;;3.47;2.42;;;17.30;99.90;;;;;;4239399;27;20631;-74
2022/11/27 05:29:30;;;;;;;4.45;2.83;;;17.40;99.90;;;;;;4236997;27;20271;-73
2022/11/27 05:31:32;;;;;;;5.32;2.75;;;17.30;99.90;;;;;;4240335;27;20217;-74
2022/11/27 05:33:34;;;;;;;3.42;2.70;;;17.30;99.90;;;;;;4236713;27;20276;-74
2022/11/27 05:35:37;;;;;;;4.05;2.70;;;17.30;99.90;;;;;;4237714;27;20217;-74
2022/11/27 05:37:39;;;;;;;4.60;2.53;;;17.30;99.90;;;;;;4236661;27;20350;-74
2022/11/27 05:39:42;;;;;;;4.72;2.72;;;17.30;99.90;;;;;;4236876;27;20322;-74
2022/11/27 05:41:45;;;;;;;4.55;2.70;;;17.30;99.90;;;;;;4242336;27;20217;-73
2022/11/27 05:43:47;;;;;;;4.78;2.75;;;17.30;99.90;;;;;;4242186;27;20565;-73
2022/11/27 05:45:51;;;;;;;4.53;2.85;;;17.40;99.90;;;;;;4237110;27;20598;-74
2022/11/27 05:47:53;;;;;;;4.55;2.47;;;17.40;99.90;;;;;;4241938;27;20263;-73
2022/11/27 05:49:55;;;;;;;4.53;2.80;;;17.30;99.90;;;;;;4236450;27;20287;-73
2022/11/27 05:51:58;;;;;;;4.50;2.75;;;17.30;99.90;;;;;;4240788;27;20210;-73
2022/11/27 05:54:00;;;;;;;4.50;2.75;;;17.30;99.90;;;;;;4236597;27;21105;-73
2022/11/27 05:56:03;;;;;;;3.88;2.55;;;17.30;99.90;;;;;;4237247;27;20274;-73
2022/11/27 05:58:06;;;;;;;3.28;2.13;;;17.30;99.90;;;;;;4235740;27;20275;-74
2022/11/27 06:00:09;;;;;;;3.97;2.25;;;17.30;99.90;;;;;;4236651;27;20263;-74
2022/11/27 06:02:13;;;;;;;4.28;2.53;;;17.30;99.90;;;;;;4236612;27;20222;-75
2022/11/27 06:04:15;;;;;;;3.67;2.78;;;17.30;99.90;;;;;;4236627;27;20221;-74
2022/11/27 06:06:19;;;;;;;4.20;2.78;;;17.30;99.90;;;;;;4237614;27;20221;-74
2022/11/27 06:08:21;;;;;;;4.00;2.50;;;17.30;99.90;;;;;;4240824;27;20969;-74
2022/11/27 06:10:24;;;;;;;3.15;2.58;;;17.30;99.90;;;;;;4237577;27;20210;-74
2022/11/27 06:12:26;;;;;;;3.90;2.10;;;17.30;99.90;;;;;;4243035;27;20221;-74
2022/11/27 06:14:30;;;;;;;3.42;2.50;;;17.30;99.90;;;;;;4240768;27;20274;-73
2022/11/27 06:16:32;;;;;;;6.35;3.40;;;17.30;99.90;;;;;;4241755;27;20212;-74
2022/11/27 06:18:36;;;;;;;4.43;2.78;;;17.30;99.90;;;;;;4240578;27;20209;-74
2022/11/27 06:20:39;;;;;;;4.78;2.92;;;17.30;99.90;;;;;;4235422;27;20291;-74
2022/11/27 06:22:41;;;;;;;4.28;2.55;;;17.20;99.90;;;;;;4237847;27;20262;-73
2022/11/27 06:24:43;;;;;;;3.92;2.35;;;17.20;99.90;;;;;;4235840;27;20581;-73
2022/11/27 06:26:46;;;;;;;4.28;2.70;;;17.30;99.90;;;;;;4236226;27;20267;-73
2022/11/27 06:28:49;;;;;;;4.30;2.78;;;17.30;99.90;;;;;;4236230;27;20228;-73
2022/11/27 06:30:51;;;;;;;6.20;2.38;;;17.20;99.90;;;;;;4237757;27;20694;-73
2022/11/27 06:32:53;;;;;;;4.25;2.42;;;17.20;99.90;;;;;;4238256;27;20291;-73
2022/11/27 06:34:57;;;;;;;3.45;2.42;;;17.20;99.90;;;;;;4235661;27;20237;-73
2022/11/27 06:36:59;;;;;;;3.33;2.30;;;17.30;99.90;;;;;;4241444;27;20217;-73
2022/11/27 06:39:03;;;;;;;4.95;2.70;;;17.30;99.90;;;;;;4241726;27;20213;-73
2022/11/27 06:41:07;;;;;;;3.95;2.72;;;17.20;99.90;;;;;;4241354;27;20349;-73
2022/11/27 06:43:09;;;;;;;3.17;2.22;;;17.30;99.90;;;;;;4235363;27;20222;-73
2022/11/27 06:45:12;;;;;;;4.10;2.17;;;17.30;99.90;;;;;;4235976;27;20209;-73
2022/11/27 06:47:15;;;;;;;3.88;2.28;;;17.20;99.90;;;;;;4237984;27;20266;-73
2022/11/27 06:49:19;;;;;;;4.43;2.97;;;17.30;99.90;;;;;;4242854;27;20224;-73
2022/11/27 06:51:25;;;;;;;4.43;2.55;;;17.30;99.90;;;;;;4239719;27;20218;-73
2022/11/27 06:53:27;;;;;;;3.53;2.30;;;17.20;99.90;;;;;;4235699;27;20476;-73
2022/11/27 06:55:29;;;;;;;3.78;2.40;;;17.20;99.90;;;;;;4235549;27;20233;-73
2022/11/27 06:57:32;;;;;;;4.53;2.50;;;17.20;99.90;;;;;;4234946;27;20225;-73
2022/11/27 06:59:34;;;;;;;3.83;2.17;;;17.30;99.90;;;;;;4239489;27;20216;-74
2022/11/27 07:01:36;;;;;;;4.25;2.58;;;17.30;99.90;;;;;;4240977;27;20715;-73
2022/11/27 07:03:39;;;;;;;3.80;2.40;;;17.30;99.90;;;;;;4241409;27;20314;-74
2022/11/27 07:05:41;;;;;;;3.35;2.20;;;17.30;99.90;;;;;;4239474;27;20274;-73
2022/11/27 07:07:45;;;;;;;3.85;2.60;;;17.30;99.90;;;;;;4241062;27;20209;-73
2022/11/27 07:09:47;;;;;;;4.38;2.63;;;17.20;99.90;;;;;;4236383;27;20618;-74
2022/11/27 07:11:49;;;;;;;3.58;2.20;;;17.20;99.90;;;;;;4236979;27;20658;-73
2022/11/27 07:13:54;;;;;;;4.07;2.50;;;17.20;99.90;;;;;;4240923;27;20222;-73
2022/11/27 07:16:00;;;;;;;3.25;2.53;;;17.20;99.90;;;;;;4240800;27;20302;-73
2022/11/27 07:18:03;;;;;;;3.97;2.63;;;17.20;99.90;;;;;;4242033;27;20221;-74
2022/11/27 07:20:06;;;;;;;3.45;2.28;;;17.30;99.90;;;;;;4235117;27;20279;-74
2022/11/27 07:22:09;;;;;;;4.95;2.58;;;17.20;99.90;;;;;;4245197;27;20239;-73
2022/11/27 07:24:12;;;;;;;4.18;2.28;;;17.20;99.90;;;;;;4245964;27;20221;-73
2022/11/27 07:26:17;;;;;;;4.50;2.67;;;17.20;99.90;;;;;;4244108;27;20225;-74
2022/11/27 07:28:19;;;;;;;3.03;2.30;;;17.20;99.90;;;;;;4241767;27;20209;-74
2022/11/27 07:30:22;;;;;;;4.90;2.65;;;17.20;99.90;;;;;;4245866;27;20623;-73
2022/11/27 07:32:24;;;;;;;4.55;2.50;;;17.20;99.90;;;;;;4245832;27;20221;-73
2022/11/27 07:34:26;;;;;;;3.58;2.22;;;17.20;99.90;;;;;;4246166;27;20744;-73
2022/11/27 07:36:30;;;;;;;3.85;2.50;;;17.20;99.90;;;;;;4246112;27;20292;-74
2022/11/27 07:38:33;;;;;;;2.70;2.22;;;17.20;99.90;;;;;;4245948;27;20205;-74
2022/11/27 07:40:38;;;;;;;3.75;2.20;;;17.20;99.90;;;;;;4246103;27;20270;-74
2022/11/27 07:42:40;;;;;;;3.53;2.38;;;17.20;99.90;;;;;;4245125;27;20213;-74
2022/11/27 07:44:43;;;;;;;3.00;2.25;;;17.20;99.90;;;;;;4245805;27;20254;-73
2022/11/27 07:46:45;;;;;;;3.85;2.47;;;17.20;99.90;;;;;;4243919;27;20741;-73
2022/11/27 07:48:48;;;;;;;2.78;2.10;;;17.20;99.90;;;;;;4242604;27;20221;-73
2022/11/27 07:50:50;;;;;;;3.03;2.15;;;17.20;99.90;;;;;;4246130;27;20274;-74
2022/11/27 07:52:52;;;;;;;3.38;2.10;;;17.20;99.90;;;;;;4245703;27;20213;-74
2022/11/27 07:54:55;;;;;;;3.78;2.65;;;17.20;99.90;;;;;;4245624;27;20633;-73
2022/11/27 07:56:59;;;;;;;3.25;2.30;;;17.20;99.90;;;;;;4246281;27;20274;-74
2022/11/27 07:59:01;;;;;;;2.95;2.20;;;17.20;99.90;;;;;;4245958;27;20209;-73
2022/11/27 08:01:07;;;;;;;3.22;2.30;;;17.20;99.90;;;;;;4245424;27;21001;-73
2022/11/27 08:03:10;;;;;;;3.15;2.05;;;17.20;99.90;;;;;;4242966;27;20235;-73
2022/11/27 08:05:12;;;;;;;2.65;2.17;;;17.20;99.90;;;;;;4245688;27;20259;-73
2022/11/27 08:07:14;;;;;;;3.30;2.53;;;17.10;99.90;;;;;;4245173;27;20254;-73
2022/11/27 08:09:17;;;;;;;3.97;2.22;;;17.10;99.90;;;;;;4245554;27;20259;-73
2022/11/27 08:11:21;;;;;;;4.03;2.20;;;17.20;99.90;;;;;;4245519;27;20254;-73
2022/11/27 08:13:25;;;;;;;3.30;2.13;;;17.10;99.90;;;;;;4245014;27;20270;-74
2022/11/27 08:15:27;;;;;;;4.43;2.78;;;17.20;99.90;;;;;;4244078;27;20237;-74
2022/11/27 08:17:30;;;;;;;3.72;2.50;;;17.20;99.90;;;;;;4245635;27;20271;-73
2022/11/27 08:19:32;;;;;;;4.15;2.33;;;17.20;99.90;;;;;;4244779;27;20213;-73
2022/11/27 08:21:34;;;;;;;3.13;2.28;;;17.20;99.90;;;;;;4232556;27;20286;-74
2022/11/27 08:23:37;;;;;;;3.13;2.35;;;17.20;99.90;;;;;;4226124;28;20267;-74
2022/11/27 08:25:39;;;;;;;2.35;2.05;;;17.20;99.90;;;;;;4228354;28;20687;-73
2022/11/27 08:27:41;;;;;;;3.13;2.08;;;17.10;99.90;;;;;;4228201;28;20222;-73
2022/11/27 08:29:45;;;;;;;4.35;2.45;;;17.20;99.90;;;;;;4228993;28;20271;-73
2022/11/27 08:31:47;;;;;;;2.75;2.40;;;17.20;99.90;;;;;;4228658;28;20221;-74
2022/11/27 08:33:50;;;;;;;3.15;2.25;;;17.10;99.90;;;;;;4227990;28;20300;-73
2022/11/27 08:35:53;;;;;;;4.40;2.55;;;17.20;99.90;;;;;;4227841;28;20237;-74
2022/11/27 08:37:55;;;;;;;3.90;2.50;;;17.20;99.90;;;;;;4227046;28;20226;-73
2022/11/27 08:39:57;;;;;;;2.88;2.03;;;17.10;99.90;;;;;;4228197;28;20218;-73
2022/11/27 08:42:00;;;;;;;3.60;2.03;;;17.20;99.90;;;;;;4226951;28;20275;-73
2022/11/27 08:44:02;;;;;;;4.13;2.30;;;17.20;99.90;;;;;;4228482;28;20214;-73
2022/11/27 08:46:07;;;;;;;3.80;2.33;;;17.10;99.90;;;;;;4228413;28;20259;-73
2022/11/27 08:48:09;;;;;;;3.63;2.50;;;17.20;99.90;;;;;;4228180;28;20217;-73
2022/11/27 08:50:11;;;;;;;4.55;2.90;;;17.20;99.90;;;;;;4225641;28;20218;-73
2022/11/27 08:52:14;;;;;;;3.78;2.40;;;17.20;99.90;;;;;;4228083;28;20880;-73
2022/11/27 08:54:16;;;;;;;3.13;2.05;;;17.10;99.90;;;;;;4228321;28;20221;-73
2022/11/27 08:56:21;;;;;;;3.47;2.10;;;17.10;99.90;;;;;;4228065;28;20291;-74
2022/11/27 08:58:23;;;;;;;3.28;2.55;;;17.20;99.90;;;;;;4228324;28;20267;-74
2022/11/27 09:00:25;;;;;;;4.63;2.30;;;17.10;99.90;;;;;;4228129;28;20218;-74
2022/11/27 09:02:29;;;;;;;4.95;2.40;;;17.10;99.90;;;;;;4227755;28;20221;-74
2022/11/27 09:04:31;;;;;;;4.30;2.13;;;17.20;99.90;;;;;;4227431;28;20654;-75
2022/11/27 09:06:35;;;;;;;3.15;2.40;;;17.20;99.90;;;;;;4227808;28;20214;-73
2022/11/27 09:08:37;;;;;;;2.90;2.17;;;17.20;99.90;;;;;;4227803;28;20213;-74
2022/11/27 09:10:40;;;;;;;4.03;2.38;;;17.10;99.90;;;;;;4227441;28;20210;-73
2022/11/27 09:12:43;;;;;;;3.40;2.38;;;17.20;99.90;;;;;;4227685;28;20263;-74
2022/11/27 09:14:45;;;;;;;2.42;2.03;;;17.10;99.90;;;;;;4227792;28;20678;-73
2022/11/27 09:16:48;;;;;;;2.97;1.95;;;17.10;99.90;;;;;;4225630;28;20238;-74
2022/11/27 09:18:52;;;;;;;3.60;2.47;;;17.10;99.90;;;;;;4227646;28;20272;-73
2022/11/27 09:20:56;;;;;;;4.00;2.47;;;17.10;99.90;;;;;;4227768;28;20241;-73
2022/11/27 09:23:01;;;;;;;3.53;2.08;;;17.10;99.90;;;;;;4233570;28;20272;-73
2022/11/27 09:25:04;;;;;;;3.45;2.30;;;17.10;99.90;;;;;;4233648;28;20967;-74
2022/11/27 09:27:06;;;;;;;2.80;2.08;;;17.10;99.90;;;;;;4233821;28;20217;-73
2022/11/27 09:29:08;;;;;;;3.70;2.30;;;17.10;99.90;;;;;;4233298;28;20267;-73
2022/11/27 09:31:14;;;;;;;4.35;2.55;;;17.10;99.90;;;;;;4233541;28;20258;-73
2022/11/27 09:33:16;;;;;;;3.25;2.33;;;17.10;99.90;;;;;;4234382;28;20661;-74
2022/11/27 09:35:20;;;;;;;3.95;2.17;;;17.10;99.90;;;;;;4230882;28;20295;-73
2022/11/27 09:37:22;;;;;;;3.28;2.22;;;17.10;99.90;;;;;;4232959;28;20214;-73
2022/11/27 09:39:29;;;;;;;2.92;2.10;;;17.10;99.90;;;;;;4235703;28;20298;-73
2022/11/27 09:41:46;;;;;;;3.90;2.70;;;17.10;99.90;;;;;;4239364;28;20221;-73
2022/11/27 09:43:53;;;;;;;2.58;1.92;;;17.10;99.90;;;;;;4238785;28;20722;-74
2022/11/27 09:46:00;;;;;;;2.78;1.90;;;17.10;99.90;;;;;;4238669;28;20303;-74
2022/11/27 09:48:05;;;;;;;2.40;2.00;;;17.10;99.90;;;;;;4238576;28;20626;-73
2022/11/27 09:50:13;;;;;;;3.10;1.58;;;17.10;99.90;;;;;;4232912;28;20213;-73
2022/11/27 09:52:23;;;;;;;2.83;2.35;;;17.10;99.90;;;;;;4238784;27;20216;-74
2022/11/27 09:54:33;;;;;;;4.60;2.63;;;17.10;99.90;;;;;;4234514;27;20622;-73
2022/11/27 09:56:36;;;;;;;2.72;2.17;;;17.10;99.90;;;;;;4236137;27;20273;-74
2022/11/27 09:58:40;;;;;;;3.38;2.25;;;17.10;99.90;;;;;;4234416;27;20265;-73
2022/11/27 10:00:43;;;;;;;4.63;3.03;;;17.10;99.90;;;;;;4241209;27;20617;-73
2022/11/27 10:02:46;;;;;;;3.70;2.50;;;17.10;99.90;;;;;;4241605;27;20263;-74
2022/11/27 10:04:49;;;;;;;3.75;2.15;;;17.10;99.90;;;;;;4241759;27;20753;-73
2022/11/27 10:07:13;;;;;;;3.42;2.13;;;17.10;99.90;;;;;;4238419;27;20588;-73
2022/11/27 10:09:26;;;;;;;4.03;2.70;;;17.10;99.90;;;;;;4238551;27;20281;-73
2022/11/27 10:11:32;;;;;;;3.47;2.30;;;17.10;99.90;;;;;;4233491;27;20511;-74
2022/11/27 10:13:51;;;;;;;2.78;2.03;;;17.10;99.90;;;;;;4235096;27;20649;-74
2022/11/27 10:15:58;;;;;;;3.70;2.38;;;17.10;99.90;;;;;;4232667;27;20234;-73
2022/11/27 10:18:05;;;;;;;2.58;2.10;;;17.10;99.90;;;;;;4233498;27;20314;-73
2022/11/27 10:20:28;;;;;;;4.25;2.60;;;17.10;99.90;;;;;;4240580;27;20212;-74
2022/11/27 10:22:43;;;;;;;2.78;2.20;;;17.10;99.90;;;;;;4246919;27;20267;-74
2022/11/27 10:25:00;;;;;;;3.53;2.40;;;17.10;99.90;;;;;;4246729;27;20217;-75
2022/11/27 10:27:13;;;;;;;3.58;2.13;;;17.10;99.90;;;;;;4246852;27;20213;-74
2022/11/27 10:29:31;;;;;;;4.18;2.75;;;17.10;99.90;;;;;;4246445;27;20217;-74
2022/11/27 10:31:36;;;;;;;3.15;2.00;;;17.10;99.90;;;;;;4246295;27;20231;-75
2022/11/27 10:33:55;;;;;;;2.38;2.17;;;17.10;99.90;;;;;;4245961;27;20213;-75
2022/11/27 10:36:00;;;;;;;4.18;2.45;;;17.10;99.90;;;;;;4245801;27;20221;-74
2022/11/27 10:38:11;;;;;;;3.38;2.20;;;17.10;99.90;;;;;;4246475;27;20217;-74
2022/11/27 10:40:22;;;;;;;3.55;2.20;;;17.10;99.90;;;;;;4246432;27;20266;-74
2022/11/27 10:42:33;;;;;;;3.90;2.45;;;17.10;99.90;;;;;;4245893;27;20618;-74
2022/11/27 10:44:40;;;;;;;3.42;2.17;;;17.10;99.90;;;;;;4246043;27;20621;-74
2022/11/27 10:46:43;;;;;;;3.42;2.30;;;17.10;99.90;;;;;;4246107;27;20258;-74
2022/11/27 10:48:45;;;;;;;3.08;2.42;;;17.10;99.90;;;;;;4246520;27;20213;-74
2022/11/27 10:50:48;;;;;;;3.25;2.03;;;17.10;99.90;;;;;;4243566;27;20616;-74